Time;durP1;ratioP1;P1;durP2;ratioP2;P2;SDS_P1;SDS_P2;PMS_P1;PMS_P2;Temp;Humidity;BMP_temperature;BMP_pressure;BME280_temperature;BME280_humidity;BME280_pressure;Samples;Min_cycle;Max_cycle;Signal;HPM_P1;HPM_P2
2022/01/22 00:00:00;;;;;;;;;15.00;15.00;;;;;9.04;54.46;103135.00;2078656;28;47397;-62
2022/01/22 00:01:01;;;;;;;;;16.00;16.00;;;;;9.04;54.40;103141.19;2078191;28;47897;-61
2022/01/22 00:02:06;;;;;;;;;16.20;15.40;;;;;9.05;54.52;103136.78;2078653;28;47120;-65
2022/01/22 00:03:07;;;;;;;;;14.20;14.00;;;;;9.05;54.43;103136.78;2079538;28;47448;-67
2022/01/22 00:04:07;;;;;;;;;11.00;11.00;;;;;9.03;54.43;103136.75;2079189;28;47337;-65
2022/01/22 00:05:10;;;;;;;;;14.00;14.00;;;;;9.04;54.32;103130.59;2078225;28;47821;-63
2022/01/22 00:06:10;;;;;;;;;14.00;14.00;;;;;9.03;54.30;103142.03;2078522;28;47845;-62
2022/01/22 00:07:11;;;;;;;;;18.75;18.75;;;;;9.04;54.51;103137.63;2078637;28;47439;-63
2022/01/22 00:08:11;;;;;;;;;15.75;14.00;;;;;9.04;54.70;103132.34;2078373;28;47136;-66
2022/01/22 00:09:12;;;;;;;;;13.75;13.75;;;;;9.04;54.32;103135.00;2078479;28;47808;-67
2022/01/22 00:10:24;;;;;;;;;20.00;15.50;;;;;9.04;54.62;103130.59;2078616;28;45374;-65
2022/01/22 00:11:29;;;;;;;;;13.40;13.00;;;;;9.04;54.45;103133.22;2069968;28;45227;-66
2022/01/22 00:14:52;;;;;;;;;13.40;13.40;;;;;9.04;54.47;103125.28;2071248;28;47339;-62
2022/01/22 00:15:53;;;;;;;;;15.00;14.25;;;;;9.05;54.30;103119.13;2073980;28;46122;-62
2022/01/22 00:16:56;;;;;;;;;14.50;14.50;;;;;9.04;54.03;103119.09;2074389;28;48039;-64
2022/01/22 00:17:58;;;;;;;;;14.40;14.40;;;;;9.04;54.34;103127.03;2086131;28;47595;-64
2022/01/22 00:18:58;;;;;;;;;16.40;14.40;;;;;9.03;54.44;103123.50;2079273;28;47162;-62
2022/01/22 00:19:59;;;;;;;;;13.25;13.25;;;;;9.04;54.28;103129.69;2078515;28;47189;-60
2022/01/22 00:21:00;;;;;;;;;17.60;15.40;;;;;9.03;54.35;103126.16;2070680;28;46154;-63
2022/01/22 00:22:00;;;;;;;;;14.75;14.00;;;;;9.03;54.31;103119.97;2069421;28;47022;-61
2022/01/22 00:23:01;;;;;;;;;15.75;15.00;;;;;9.04;54.64;103120.00;2078295;28;47137;-63
2022/01/22 00:24:03;;;;;;;;;15.00;14.00;;;;;9.03;54.34;103130.56;2072013;28;48675;-62
2022/01/22 00:25:08;;;;;;;;;16.40;14.80;;;;;9.04;54.39;103135.00;2073157;28;47642;-62
2022/01/22 00:26:09;;;;;;;;;13.20;13.20;;;;;9.03;54.50;103126.16;2071018;28;47609;-63
2022/01/22 00:27:09;;;;;;;;;12.75;12.50;;;;;9.03;54.43;103119.97;2075474;28;47192;-66
2022/01/22 00:28:10;;;;;;;;;17.75;16.50;;;;;9.03;54.53;103127.91;2078997;28;47082;-65
2022/01/22 00:29:11;;;;;;;;;13.50;13.50;;;;;9.04;54.61;103116.44;2071314;28;47335;-65
2022/01/22 00:30:21;;;;;;;;;16.20;14.40;;;;;9.04;54.60;103111.16;2074074;28;47535;-67
2022/01/22 00:31:22;;;;;;;;;14.60;14.60;;;;;9.04;54.57;103111.16;2073726;28;47579;-64
2022/01/22 00:32:22;;;;;;;;;13.50;13.00;;;;;9.04;54.48;103111.16;2070977;28;47346;-66
2022/01/22 00:33:22;;;;;;;;;17.25;14.50;;;;;9.02;54.27;103108.47;2075998;28;47540;-66
2022/01/22 00:34:23;;;;;;;;;14.75;12.75;;;;;9.02;54.29;103108.47;2078158;28;47411;-66
2022/01/22 00:35:24;;;;;;;;;15.00;15.00;;;;;9.02;54.33;103107.53;2072231;28;47096;-62
2022/01/22 00:36:24;;;;;;;;;17.25;14.00;;;;;9.03;54.25;103110.25;2074429;28;46818;-66
2022/01/22 00:37:25;;;;;;;;;14.00;12.75;;;;;9.02;54.28;103108.47;2070146;28;46950;-66
2022/01/22 00:38:25;;;;;;;;;12.00;11.50;;;;;9.02;54.36;103104.91;2072983;28;47534;-65
2022/01/22 00:39:25;;;;;;;;;13.00;11.75;;;;;9.01;54.30;103109.31;2074204;28;47985;-64
2022/01/22 00:40:26;;;;;;;;;13.00;12.00;;;;;9.02;54.16;103103.16;2071084;28;47423;-61
2022/01/22 00:41:27;;;;;;;;;12.80;12.80;;;;;9.01;54.35;103104.00;2074413;28;47868;-63
2022/01/22 00:42:28;;;;;;;;;13.00;10.50;;;;;9.01;54.34;103096.06;2072282;28;47362;-62
2022/01/22 00:43:28;;;;;;;;;13.80;12.40;;;;;9.03;54.42;103109.38;2072159;28;47358;-66
2022/01/22 00:44:29;;;;;;;;;13.75;11.75;;;;;9.03;54.34;103106.72;2074634;28;48601;-64
2022/01/22 00:45:29;;;;;;;;;11.75;11.25;;;;;9.02;54.72;103104.91;2078611;28;47296;-61
2022/01/22 00:46:31;;;;;;;;;11.25;11.25;;;;;9.03;54.40;103112.00;2078673;28;46299;-60
2022/01/22 00:47:31;;;;;;;;;15.00;12.20;;;;;9.02;54.44;103105.81;2078887;28;47401;-66
2022/01/22 00:48:32;;;;;;;;;13.25;12.25;;;;;9.03;54.32;103106.72;2078426;28;48213;-63
2022/01/22 00:49:34;;;;;;;;;13.00;11.25;;;;;9.03;54.69;103109.38;2079519;28;47130;-66
2022/01/22 00:50:34;;;;;;;;;13.20;13.20;;;;;9.03;54.44;103110.25;2079476;28;47317;-66
2022/01/22 00:51:35;;;;;;;;;11.00;8.00;;;;;9.03;54.34;103106.72;2079410;28;48252;-66
2022/01/22 00:52:35;;;;;;;;;12.50;11.75;;;;;9.04;54.33;103111.16;2077991;28;47276;-65
2022/01/22 00:53:35;;;;;;;;;11.75;11.75;;;;;9.03;54.45;103104.97;2078718;28;47180;-65
2022/01/22 00:54:36;;;;;;;;;17.00;15.75;;;;;9.04;54.43;103106.75;2079154;28;45038;-67
2022/01/22 00:55:36;;;;;;;;;13.75;12.00;;;;;9.04;54.68;103111.16;2077841;28;46870;-64
2022/01/22 00:56:37;;;;;;;;;14.00;13.00;;;;;9.05;54.42;103112.94;2078891;28;46826;-64
2022/01/22 00:57:37;;;;;;;;;12.00;9.25;;;;;9.05;54.50;103107.63;2078158;28;46533;-68
2022/01/22 00:58:38;;;;;;;;;15.50;13.00;;;;;9.06;54.42;103120.91;2078445;28;47382;-66
2022/01/22 00:59:38;;;;;;;;;12.75;11.25;;;;;9.05;54.31;103112.94;2078794;28;46930;-65
2022/01/22 01:00:39;;;;;;;;;13.50;12.50;;;;;9.05;54.72;103118.22;2078875;28;47142;-65
2022/01/22 01:01:39;;;;;;;;;17.00;16.25;;;;;9.06;54.49;103112.06;2078444;28;47611;-65
2022/01/22 01:02:40;;;;;;;;;12.50;12.50;;;;;9.05;54.40;103116.47;2078210;28;47394;-66
2022/01/22 01:03:41;;;;;;;;;12.00;12.00;;;;;9.04;54.68;103106.75;2077737;28;46504;-66
2022/01/22 01:04:41;;;;;;;;;14.75;13.50;;;;;9.05;54.51;103111.19;2078301;28;46819;-66
2022/01/22 01:05:42;;;;;;;;;12.75;12.75;;;;;9.06;54.48;103109.44;2079080;28;47137;-67
2022/01/22 01:06:42;;;;;;;;;13.50;13.00;;;;;9.07;54.51;103112.09;2070011;28;47518;-65
2022/01/22 01:07:43;;;;;;;;;14.75;13.75;;;;;9.07;54.49;103108.56;2068671;28;46144;-68
2022/01/22 01:08:43;;;;;;;;;13.00;12.75;;;;;9.08;54.46;103111.25;2078364;28;48475;-67
2022/01/22 01:09:44;;;;;;;;;14.50;13.00;;;;;9.09;54.63;103110.38;2069732;28;46247;-65
2022/01/22 01:10:45;;;;;;;;;17.00;15.75;;;;;9.10;54.70;103108.63;2069448;28;47117;-67
2022/01/22 01:11:51;;;;;;;;;14.00;14.00;;;;;9.08;54.54;103110.34;2078549;28;46786;-66
2022/01/22 01:12:52;;;;;;;;;14.40;13.00;;;;;9.10;54.44;103098.91;2079560;28;47051;-65
2022/01/22 01:13:57;;;;;;;;;16.60;14.20;;;;;9.10;54.42;103104.22;2078537;28;47858;-62
2022/01/22 01:32:20;;;;;;;;;11.80;11.60;;;;;9.07;54.75;103096.22;2060779;28;47264;-65
2022/01/22 01:34:27;;;;;;;;;12.40;12.40;;;;;9.09;54.81;103105.09;2078336;28;47599;-66
2022/01/22 01:35:30;;;;;;;;;14.50;13.75;;;;;9.09;54.88;103101.53;2068590;28;46470;-66
2022/01/22 01:36:30;;;;;;;;;13.40;12.60;;;;;9.10;54.62;103096.28;2068708;28;46127;-63
2022/01/22 01:37:31;;;;;;;;;9.33;9.33;;;;;9.09;54.68;103096.25;2078776;28;48002;-64
2022/01/22 01:38:38;;;;;;;;;13.25;12.00;;;;;9.09;54.71;103086.53;2078486;28;46626;-60
2022/01/22 01:39:39;;;;;;;;;11.25;10.00;;;;;9.08;54.46;103090.06;2078741;28;47624;-62
2022/01/22 01:40:43;;;;;;;;;11.80;11.80;;;;;9.08;54.56;103081.22;2078615;28;47225;-65
2022/01/22 01:43:09;;;;;;;;;11.40;10.80;;;;;9.09;54.33;103085.66;2078208;28;47628;-65
2022/01/22 01:44:10;;;;;;;;;11.80;11.80;;;;;9.07;54.85;103093.56;2077955;28;47166;-67
2022/01/22 01:45:11;;;;;;;;;12.00;10.75;;;;;9.07;54.47;103093.56;2078050;28;47505;-63
2022/01/22 01:46:11;;;;;;;;;12.00;9.50;;;;;9.07;54.64;103096.22;2078924;28;46407;-66
2022/01/22 01:47:16;;;;;;;;;11.50;11.50;;;;;9.07;54.60;103090.91;2078901;28;47644;-66
2022/01/22 01:48:21;;;;;;;;;11.60;11.60;;;;;9.06;54.77;103094.44;2071510;28;47324;-65
2022/01/22 01:49:22;;;;;;;;;12.60;12.60;;;;;9.07;54.50;103090.03;2071699;28;47254;-66
2022/01/22 01:50:23;;;;;;;;;10.67;8.33;;;;;9.07;54.72;103097.97;2077836;28;46829;-66
2022/01/22 01:51:26;;;;;;;;;14.00;12.25;;;;;9.06;54.82;103088.22;2078548;28;47385;-64
2022/01/22 01:52:37;;;;;;;;;12.00;10.80;;;;;9.06;54.91;103102.38;2069605;28;46087;-67
2022/01/22 01:55:09;;;;;;;;;11.60;11.00;;;;;9.08;54.49;103097.09;2080247;28;46895;-67
2022/01/22 01:57:39;;;;;;;;;13.80;13.00;;;;;9.10;54.71;103098.03;2079961;28;47870;-65
2022/01/22 01:58:40;;;;;;;;;12.60;12.60;;;;;9.08;54.92;103098.00;2076497;28;47768;-65
2022/01/22 01:59:42;;;;;;;;;10.67;10.67;;;;;9.08;54.89;103092.69;2079223;28;48060;-66
2022/01/22 02:00:43;;;;;;;;;12.60;12.60;;;;;9.08;54.69;103097.09;2079169;28;47506;-66
2022/01/22 02:01:43;;;;;;;;;12.20;12.00;;;;;9.09;54.77;103098.88;2079062;28;47983;-65
2022/01/22 02:02:46;;;;;;;;;11.50;11.25;;;;;9.08;54.90;103102.41;2079219;28;47357;-66
2022/01/22 02:03:47;;;;;;;;;13.40;13.40;;;;;9.08;54.94;103098.00;2079015;28;47844;-65
2022/01/22 02:04:47;;;;;;;;;14.00;13.00;;;;;9.09;54.81;103098.88;2079254;28;47525;-65
2022/01/22 02:05:48;;;;;;;;;13.50;13.50;;;;;9.09;54.65;103104.19;2079131;28;47494;-64
2022/01/22 02:06:48;;;;;;;;;11.25;10.75;;;;;9.09;54.67;103105.09;2079116;28;47394;-65
2022/01/22 02:07:52;;;;;;;;;14.25;13.00;;;;;9.10;54.78;103104.22;2079343;28;47783;-66
2022/01/22 02:08:53;;;;;;;;;14.40;12.80;;;;;9.09;54.78;103099.78;2079434;28;47939;-67
2022/01/22 02:09:54;;;;;;;;;14.00;14.00;;;;;9.09;54.70;103094.47;2079097;28;47056;-66
2022/01/22 02:10:59;;;;;;;;;13.50;11.25;;;;;9.09;54.67;103102.44;2079285;28;47666;-66
2022/01/22 02:12:46;;;;;;;;;12.40;12.40;;;;;9.09;54.76;103099.78;2079134;28;47464;-66
2022/01/22 02:23:44;;;;;;;;;12.40;12.40;;;;;9.11;54.80;103094.50;2076477;28;47192;-66
2022/01/22 02:24:44;;;;;;;;;13.40;13.20;;;;;9.11;54.78;103083.91;2077440;28;47864;-67
2022/01/22 02:25:45;;;;;;;;;14.25;13.25;;;;;9.11;54.71;103089.22;2077798;28;47559;-65
2022/01/22 02:26:47;;;;;;;;;11.50;11.50;;;;;9.11;54.92;103090.09;2078300;28;47541;-62
2022/01/22 02:27:47;;;;;;;;;16.80;14.40;;;;;9.13;54.96;103090.16;2077836;28;47246;-63
2022/01/22 02:28:51;;;;;;;;;19.75;15.50;;;;;9.13;54.85;103087.50;2077796;28;46859;-65
2022/01/22 02:29:51;;;;;;;;;12.20;11.20;;;;;9.11;54.92;103082.16;2078282;28;48088;-64
2022/01/22 02:30:58;;;;;;;;;11.25;11.25;;;;;9.14;54.84;103089.28;2078747;28;47209;-64
2022/01/22 02:32:22;;;;;;;;;12.20;12.20;;;;;9.13;54.85;103093.69;2079017;28;47178;-66
2022/01/22 02:33:39;;;;;;;;;10.80;10.80;;;;;9.14;54.79;103086.63;2078636;28;47503;-65
2022/01/22 02:34:51;;;;;;;;;11.00;11.00;;;;;9.16;54.81;103094.63;2078329;28;47942;-64
2022/01/22 02:36:15;;;;;;;;;12.60;12.00;;;;;9.14;54.87;103084.88;2078287;28;47290;-66
2022/01/22 02:37:18;;;;;;;;;10.80;10.40;;;;;9.14;55.08;103087.53;2077083;28;47484;-66
2022/01/22 02:38:26;;;;;;;;;12.80;11.80;;;;;9.16;54.73;103086.69;2077649;28;47353;-65
2022/01/22 02:39:50;;;;;;;;;14.80;13.80;;;;;9.15;54.92;103085.81;2077716;28;48323;-64
2022/01/22 02:40:51;;;;;;;;;8.60;6.60;;;;;9.14;54.66;103084.88;2077709;28;47322;-61
2022/01/22 02:41:52;;;;;;;;;13.00;12.00;;;;;9.14;54.81;103081.34;2077740;28;47108;-65
2022/01/22 02:42:52;;;;;;;;;12.00;12.00;;;;;9.15;54.73;103077.84;2077869;28;47369;-65
2022/01/22 02:43:54;;;;;;;;;12.25;12.25;;;;;9.14;54.71;103078.69;2077616;28;47093;-65
2022/01/22 02:44:55;;;;;;;;;12.20;12.20;;;;;9.15;54.69;103080.50;2078131;28;47647;-63
2022/01/22 02:45:55;;;;;;;;;13.75;13.50;;;;;9.14;54.83;103076.03;2078547;28;47219;-64
2022/01/22 02:46:56;;;;;;;;;21.00;19.00;;;;;9.15;54.67;103075.19;2078825;28;47505;-64
2022/01/22 02:47:56;;;;;;;;;17.25;17.00;;;;;9.15;54.85;103080.50;2080616;28;47435;-66
2022/01/22 02:48:57;;;;;;;;;13.25;13.00;;;;;9.15;54.76;103080.50;2080056;28;45353;-64
2022/01/22 02:49:57;;;;;;;;;15.25;14.75;;;;;9.14;54.70;103079.56;2079662;28;47528;-66
2022/01/22 02:50:58;;;;;;;;;13.00;11.75;;;;;9.14;54.83;103079.56;2079390;28;46659;-67
2022/01/22 02:52:04;;;;;;;;;14.25;12.00;;;;;9.16;54.94;103082.28;2071218;28;45874;-63
2022/01/22 02:53:10;;;;;;;;;12.40;11.80;;;;;9.16;54.77;103074.34;2070645;28;48057;-64
2022/01/22 02:54:11;;;;;;;;;15.20;13.00;;;;;9.17;54.45;103072.59;2079299;28;47283;-66
2022/01/22 02:55:13;;;;;;;;;12.50;12.50;;;;;9.17;54.91;103073.47;2079752;28;47609;-66
2022/01/22 02:56:13;;;;;;;;;12.20;12.20;;;;;9.18;54.93;103071.72;2080230;28;47387;-66
2022/01/22 02:57:14;;;;;;;;;13.50;13.00;;;;;9.17;54.94;103065.53;2080173;28;47010;-60
2022/01/22 02:58:15;;;;;;;;;14.50;12.75;;;;;9.18;54.76;103075.25;2078931;28;47247;-62
2022/01/22 02:59:21;;;;;;;;;15.25;15.00;;;;;9.17;54.82;103064.63;2071051;28;47586;-64
2022/01/22 03:00:22;;;;;;;;;15.00;13.80;;;;;9.18;55.40;103071.72;2070763;28;47281;-64
2022/01/22 03:01:23;;;;;;;;;12.60;12.40;;;;;9.18;54.57;103074.38;2078998;28;47560;-64
2022/01/22 03:02:24;;;;;;;;;14.60;13.60;;;;;9.18;54.82;103066.41;2079456;28;47393;-67
2022/01/22 03:03:24;;;;;;;;;14.50;12.75;;;;;9.18;54.80;103077.03;2079149;28;46850;-65
2022/01/22 03:04:25;;;;;;;;;17.25;14.50;;;;;9.18;54.79;103055.81;2078888;28;47715;-60
2022/01/22 03:05:25;;;;;;;;;13.25;13.25;;;;;9.17;54.84;103068.19;2079111;28;47059;-64
2022/01/22 03:06:26;;;;;;;;;16.00;13.50;;;;;9.16;54.67;103074.34;2079127;28;47153;-65
2022/01/22 03:07:26;;;;;;;;;12.50;12.25;;;;;9.16;54.85;103065.50;2079802;28;47198;-65
2022/01/22 03:08:28;;;;;;;;;11.00;11.00;;;;;9.16;54.78;103068.16;2079569;28;47085;-62
2022/01/22 03:09:32;;;;;;;;;13.60;12.60;;;;;9.16;54.72;103068.16;2080306;28;48345;-66
2022/01/22 03:10:33;;;;;;;;;15.40;14.60;;;;;9.14;54.75;103068.09;2079922;28;48072;-66
2022/01/22 03:11:42;;;;;;;;;13.00;13.00;;;;;9.14;55.03;103068.97;2079785;28;46718;-66
2022/01/22 03:12:52;;;;;;;;;11.00;11.00;;;;;9.16;54.79;103060.19;2080340;28;47750;-67
2022/01/22 03:14:31;;;;;;;;;12.00;12.00;;;;;9.14;54.85;103060.13;2079561;28;48327;-66
2022/01/22 03:15:36;;;;;;;;;12.00;12.00;;;;;9.15;54.87;103061.97;2079389;28;47299;-66
2022/01/22 03:16:54;;;;;;;;;14.20;12.40;;;;;9.16;54.74;103073.44;2078929;28;47450;-67
2022/01/22 03:18:17;;;;;;;;;14.00;12.00;;;;;9.15;54.89;103069.91;2070757;28;47462;-66
2022/01/22 03:19:55;;;;;;;;;13.00;12.60;;;;;9.16;54.88;103068.16;2071220;28;47261;-61
2022/01/22 03:22:15;;;;;;;;;11.25;11.00;;;;;9.17;54.72;103070.81;2079082;28;46556;-65
2022/01/22 03:27:24;;;;;;;;;12.25;11.25;;;;;9.18;54.88;103067.31;2079006;28;48426;-60
2022/01/22 03:28:29;;;;;;;;;11.00;10.60;;;;;9.18;54.96;103069.97;2070090;28;47445;-67
2022/01/22 03:29:35;;;;;;;;;12.60;12.60;;;;;9.17;54.73;103070.81;2071212;28;47610;-65
2022/01/22 03:30:36;;;;;;;;;11.60;10.00;;;;;9.18;55.02;103071.72;2079698;28;46341;-63
2022/01/22 03:31:37;;;;;;;;;12.00;10.00;;;;;9.17;54.78;103069.94;2079107;28;47721;-60
2022/01/22 03:32:42;;;;;;;;;14.20;12.80;;;;;9.17;55.07;103070.81;2079037;28;47811;-64
2022/01/22 03:33:43;;;;;;;;;15.60;14.00;;;;;9.18;54.93;103069.06;2078623;28;48554;-65
2022/01/22 03:34:55;;;;;;;;;12.75;11.75;;;;;9.19;55.02;103073.50;2078761;28;48408;-63
2022/01/22 03:35:57;;;;;;;;;12.40;12.40;;;;;9.18;54.79;103074.38;2078919;28;47259;-65
2022/01/22 03:36:57;;;;;;;;;7.20;7.20;;;;;9.17;55.21;103067.28;2079017;28;47822;-66
2022/01/22 03:37:58;;;;;;;;;11.75;11.25;;;;;9.18;54.81;103074.38;2079060;28;47238;-65
2022/01/22 03:38:59;;;;;;;;;12.00;12.00;;;;;9.17;54.91;103073.47;2079400;28;47225;-63
2022/01/22 03:39:59;;;;;;;;;12.40;12.40;;;;;9.17;55.04;103072.59;2079199;28;47302;-66
2022/01/22 03:41:01;;;;;;;;;11.50;11.50;;;;;9.16;55.00;103076.09;2079702;28;47892;-66
2022/01/22 03:42:02;;;;;;;;;14.40;14.40;;;;;9.18;55.08;103090.25;2079484;28;47484;-67
2022/01/22 03:43:03;;;;;;;;;11.25;10.25;;;;;9.17;54.82;103086.72;2079569;28;47740;-67
2022/01/22 03:44:08;;;;;;;;;16.25;14.50;;;;;9.16;55.03;103084.94;2078683;28;47007;-67
2022/01/22 03:45:11;;;;;;;;;14.20;13.20;;;;;9.18;54.91;103090.25;2078445;28;46958;-64
2022/01/22 03:46:11;;;;;;;;;8.80;8.80;;;;;9.17;54.87;103091.13;2079150;28;48298;-67
2022/01/22 03:47:11;;;;;;;;;11.25;11.25;;;;;9.17;55.09;103092.03;2078903;28;47960;-67
2022/01/22 03:48:12;;;;;;;;;14.25;13.25;;;;;9.18;55.08;103088.50;2079362;28;47416;-67
2022/01/22 03:49:15;;;;;;;;;14.50;12.75;;;;;9.19;55.07;103089.41;2078769;28;47246;-63
2022/01/22 03:50:19;;;;;;;;;15.00;14.20;;;;;9.18;54.84;103087.63;2078465;28;47953;-66
2022/01/22 03:51:20;;;;;;;;;13.00;13.00;;;;;9.18;54.81;103088.50;2078702;28;47436;-66
2022/01/22 03:52:20;;;;;;;;;12.50;11.75;;;;;9.18;55.04;103088.50;2078915;28;47997;-65
2022/01/22 03:53:22;;;;;;;;;12.75;12.75;;;;;9.18;54.98;103085.84;2078693;28;47684;-63
2022/01/22 03:54:23;;;;;;;;;13.00;12.00;;;;;9.19;55.16;103084.09;2079662;28;47877;-67
2022/01/22 03:56:56;;;;;;;;;11.60;11.00;;;;;9.20;55.04;103085.88;2045507;28;46911;-60
2022/01/22 03:57:57;;;;;;;;;14.25;14.25;;;;;9.20;55.07;103081.47;2068031;28;47665;-66
2022/01/22 03:58:57;;;;;;;;;14.75;14.75;;;;;9.20;55.01;103080.59;2069677;28;47137;-62
2022/01/22 03:59:58;;;;;;;;;14.25;13.50;;;;;9.19;55.27;103078.81;2070155;28;45186;-61
2022/01/22 04:01:29;;;;;;;;;15.50;14.75;;;;;9.20;54.97;103081.47;2070394;28;47762;-62
2022/01/22 04:03:54;;;;;;;;;11.60;11.40;;;;;9.20;55.06;103084.13;2077483;28;47826;-65
2022/01/22 04:04:59;;;;;;;;;12.20;12.20;;;;;9.20;55.08;103081.47;2078722;28;48259;-67
2022/01/22 04:08:19;;;;;;;;;13.75;12.00;;;;;9.21;55.26;103085.03;2078517;28;46926;-65
2022/01/22 04:09:22;;;;;;;;;13.25;11.50;;;;;9.21;55.27;103082.38;2078893;28;46604;-66
2022/01/22 04:10:24;;;;;;;;;15.60;14.60;;;;;9.21;55.24;103079.72;2078835;28;47361;-66
2022/01/22 04:11:25;;;;;;;;;16.00;14.40;;;;;9.21;55.04;103079.72;2063130;28;46475;-66
2022/01/22 04:13:35;;;;;;;;;13.80;12.20;;;;;9.21;55.34;103079.72;2071532;28;48055;-65
2022/01/22 04:14:44;;;;;;;;;14.75;13.50;;;;;9.22;55.23;103073.56;2079623;28;47183;-65
2022/01/22 04:15:46;;;;;;;;;16.20;14.00;;;;;9.19;55.24;103066.44;2079186;28;46550;-65
2022/01/22 04:17:21;;;;;;;;;14.40;14.00;;;;;9.21;55.05;103069.13;2078899;28;47211;-65
2022/01/22 04:24:51;;;;;;;;;12.00;11.00;;;;;9.18;55.23;103069.06;2078252;28;46632;-60
2022/01/22 04:26:04;;;;;;;;;15.40;13.20;;;;;9.18;55.44;103069.06;2078861;28;47537;-63
2022/01/22 04:27:11;;;;;;;;;11.00;11.00;;;;;9.16;55.09;103074.34;2079371;28;47370;-66
2022/01/22 04:28:12;;;;;;;;;11.60;11.00;;;;;9.17;55.26;103068.19;2078291;28;47338;-67
2022/01/22 04:29:13;;;;;;;;;12.40;12.40;;;;;9.17;55.27;103072.59;2070017;28;47152;-67
2022/01/22 04:30:14;;;;;;;;;12.50;10.50;;;;;9.17;55.07;103067.28;2069568;28;47774;-65
2022/01/22 04:31:14;;;;;;;;;14.00;14.00;;;;;9.16;55.13;103071.69;2078850;28;45219;-66
2022/01/22 04:32:15;;;;;;;;;14.75;12.50;;;;;9.16;55.28;103071.69;2078283;28;47438;-65
2022/01/22 04:33:15;;;;;;;;;12.50;12.50;;;;;9.16;55.18;103071.69;2078784;28;47173;-66
2022/01/22 04:34:16;;;;;;;;;11.50;11.50;;;;;9.17;55.47;103078.78;2078212;28;46383;-65
2022/01/22 04:35:22;;;;;;;;;12.50;12.00;;;;;9.17;55.36;103072.59;2078620;28;45132;-67
2022/01/22 04:36:23;;;;;;;;;15.20;13.40;;;;;9.16;55.14;103070.81;2078420;28;47867;-67
2022/01/22 04:37:24;;;;;;;;;14.00;13.50;;;;;9.17;55.44;103065.53;2078107;28;46564;-67
2022/01/22 04:38:25;;;;;;;;;15.80;12.80;;;;;9.16;55.36;103066.41;2078882;28;48161;-68
2022/01/22 04:39:27;;;;;;;;;12.75;12.75;;;;;9.17;55.13;103062.00;2079303;28;47887;-65
2022/01/22 04:40:27;;;;;;;;;13.20;12.60;;;;;9.18;55.50;103066.41;2079183;28;47488;-67
2022/01/22 04:41:28;;;;;;;;;11.00;11.00;;;;;9.17;55.40;103065.53;2079796;28;47764;-66
2022/01/22 04:42:31;;;;;;;;;12.25;11.00;;;;;9.18;55.22;103067.31;2078122;28;47018;-67
2022/01/22 04:43:35;;;;;;;;;15.00;13.60;;;;;9.18;55.32;103066.41;2078312;28;47136;-63
2022/01/22 04:44:42;;;;;;;;;20.00;15.80;;;;;9.17;55.32;103072.59;2077990;28;47244;-63
2022/01/22 04:45:52;;;;;;;;;14.40;12.40;;;;;9.17;55.27;103073.47;2077850;28;46702;-64
2022/01/22 04:47:12;;;;;;;;;13.00;13.00;;;;;9.17;55.26;103075.22;2078553;28;47578;-67
2022/01/22 04:48:27;;;;;;;;;11.20;11.20;;;;;9.17;55.36;103070.81;2079204;28;47783;-65
2022/01/22 04:54:59;;;;;;;;;16.20;14.40;;;;;9.18;55.33;103075.25;2061021;28;47472;-66
2022/01/22 04:55:59;;;;;;;;;14.60;13.20;;;;;9.16;55.21;103069.03;2079408;28;47445;-67
2022/01/22 04:57:00;;;;;;;;;12.75;12.75;;;;;9.16;55.34;103073.44;2070357;28;47927;-67
2022/01/22 04:58:03;;;;;;;;;11.50;10.25;;;;;9.17;55.35;103072.59;2070827;28;47384;-67
2022/01/22 04:59:04;;;;;;;;;14.00;13.00;;;;;9.16;55.34;103070.81;2079500;28;47036;-66
2022/01/22 05:00:13;;;;;;;;;16.00;16.00;;;;;9.18;55.59;103061.13;2079684;28;45293;-68
2022/01/22 05:01:14;;;;;;;;;13.60;13.60;;;;;9.17;55.37;103072.59;2070313;28;46644;-67
2022/01/22 05:02:14;;;;;;;;;19.75;18.50;;;;;9.16;55.19;103069.03;2069803;28;47811;-65
2022/01/22 05:03:16;;;;;;;;;18.00;18.00;;;;;9.16;55.52;103073.44;2069124;28;47743;-66
2022/01/22 05:04:16;;;;;;;;;16.00;16.00;;;;;9.17;55.54;103077.88;2077806;28;47562;-66
2022/01/22 05:05:19;;;;;;;;;20.75;17.75;;;;;9.17;55.46;103072.59;2078547;28;47469;-66
2022/01/22 05:06:20;;;;;;;;;17.80;17.00;;;;;9.18;55.39;103071.72;2079206;28;47709;-62
2022/01/22 05:07:20;;;;;;;;;18.50;18.50;;;;;9.18;55.42;103075.25;2078550;28;47878;-64
2022/01/22 05:08:21;;;;;;;;;18.25;17.50;;;;;9.17;55.21;103077.88;2078535;28;46453;-66
2022/01/22 05:09:21;;;;;;;;;21.00;20.50;;;;;9.17;55.21;103078.78;2078114;28;47595;-65
2022/01/22 05:10:22;;;;;;;;;21.00;21.00;;;;;9.16;55.46;103071.69;2077330;28;47342;-66
2022/01/22 05:11:24;;;;;;;;;20.60;18.20;;;;;9.16;55.31;103073.44;2078081;28;45389;-65
2022/01/22 05:12:24;;;;;;;;;21.20;19.40;;;;;9.17;55.41;103070.81;2078189;28;47454;-65
2022/01/22 05:13:25;;;;;;;;;25.50;22.50;;;;;9.17;55.39;103067.28;2078202;28;47736;-65
2022/01/22 05:14:25;;;;;;;;;17.25;16.00;;;;;9.17;55.25;103075.22;2078369;28;47117;-66
2022/01/22 05:15:25;;;;;;;;;21.00;21.00;;;;;9.17;55.27;103076.13;2078092;28;47153;-66
2022/01/22 05:16:26;;;;;;;;;21.50;20.50;;;;;9.17;55.16;103075.22;2078723;28;46063;-64
2022/01/22 05:17:26;;;;;;;;;23.50;22.50;;;;;9.19;55.25;103073.50;2080298;28;47125;-65
2022/01/22 05:18:27;;;;;;;;;22.25;22.25;;;;;9.18;55.38;103069.97;2079466;28;46973;-65
2022/01/22 05:20:45;;;;;;;;;17.40;16.80;;;;;9.20;55.26;103072.63;2078788;28;47296;-66
2022/01/22 05:21:46;;;;;;;;;24.00;24.00;;;;;9.20;55.53;103072.63;2078762;28;47802;-64
2022/01/22 05:23:52;;;;;;;;;23.20;21.20;;;;;9.21;55.10;103077.06;2079719;28;47672;-66
2022/01/22 05:24:57;;;;;;;;;27.20;23.60;;;;;9.21;55.47;103074.44;2071546;28;47107;-66
2022/01/22 05:26:02;;;;;;;;;20.60;20.00;;;;;9.22;55.21;103074.47;2078034;28;48324;-64
2022/01/22 05:31:40;;;;;;;;;20.50;19.00;;;;;9.21;55.29;103074.44;2078977;28;47447;-67
2022/01/22 05:37:29;;;;;;;;;22.00;21.60;;;;;9.20;55.19;103081.47;2070798;28;47660;-65
2022/01/22 05:38:30;;;;;;;;;26.50;22.00;;;;;9.19;55.09;103078.81;2070033;28;47302;-65
2022/01/22 05:39:32;;;;;;;;;23.60;22.40;;;;;9.19;55.09;103087.66;2073367;28;47273;-66
2022/01/22 05:40:34;;;;;;;;;24.60;24.60;;;;;9.19;55.35;103081.47;2078062;28;47076;-66
2022/01/22 05:41:36;;;;;;;;;20.40;20.40;;;;;9.18;55.24;103083.22;2078190;28;46167;-65
2022/01/22 05:42:37;;;;;;;;;27.00;25.00;;;;;9.18;55.11;103084.97;2077952;28;47045;-64
2022/01/22 05:43:37;;;;;;;;;31.75;25.75;;;;;9.17;55.12;103089.38;2077874;28;47000;-63
2022/01/22 05:44:38;;;;;;;;;25.75;22.75;;;;;9.18;55.15;103085.84;2078566;28;46615;-66
2022/01/22 05:45:38;;;;;;;;;25.50;22.75;;;;;9.18;55.27;103085.84;2077589;28;47420;-65
2022/01/22 05:46:39;;;;;;;;;26.25;25.00;;;;;9.18;55.28;103083.22;2078142;28;47718;-63
2022/01/22 05:47:40;;;;;;;;;23.00;22.00;;;;;9.18;55.41;103082.31;2079734;28;45437;-65
2022/01/22 05:48:41;;;;;;;;;23.80;21.80;;;;;9.18;55.16;103083.22;2079462;28;47276;-66
2022/01/22 05:49:43;;;;;;;;;22.00;22.00;;;;;9.19;55.10;103084.09;2079367;28;47088;-67
2022/01/22 05:51:53;;;;;;;;;26.40;24.40;;;;;9.18;55.23;103084.97;2078922;28;47169;-68
2022/01/22 05:53:01;;;;;;;;;25.00;23.60;;;;;9.17;55.30;103084.06;2078908;28;47267;-66
2022/01/22 06:00:24;;;;;;;;;25.20;21.80;;;;;9.17;55.20;103093.78;2076030;28;47546;-68
2022/01/22 06:01:24;;;;;;;;;29.25;24.00;;;;;9.16;55.34;103094.63;2076892;28;47119;-67
2022/01/22 06:02:25;;;;;;;;;27.75;24.00;;;;;9.16;55.40;103099.94;2078521;28;45899;-67
2022/01/22 06:03:25;;;;;;;;;24.75;23.00;;;;;9.16;55.22;103099.94;2078752;28;47445;-62
2022/01/22 06:04:26;;;;;;;;;28.75;24.50;;;;;9.14;55.07;103092.81;2074974;28;47327;-64
2022/01/22 06:05:26;;;;;;;;;27.75;25.25;;;;;9.15;55.28;103096.41;2076230;28;45967;-65
2022/01/22 06:06:26;;;;;;;;;27.25;23.50;;;;;9.16;55.30;103095.53;2079206;28;47119;-66
2022/01/22 06:07:27;;;;;;;;;25.75;23.75;;;;;9.14;55.38;103098.13;2078893;28;47734;-62